Time,TemperatureF,DewpointF,PressureIn,WindDirection,WindDirectionDegrees,WindSpeedMPH,WindSpeedGustMPH,Humidity,HourlyPrecipIn,Conditions,Clouds,dailyrainin,SoftwareType,DateUTC
2013-05-14 00:00:00,66.7,52.4,30.12,SSE,148,0.0,5.0,60,0.00,,,0.00,Wunderground v.1.15,2013-05-14 05:00:00,
2013-05-14 00:10:00,66.3,52.4,30.13,SSE,148,0.0,5.0,61,0.00,,,0.00,Wunderground v.1.15,2013-05-14 05:10:00,
2013-05-14 00:20:00,66.0,52.6,30.13,SSE,148,0.0,5.0,62,0.00,,,0.00,Wunderground v.1.15,2013-05-14 05:20:00,
2013-05-14 00:30:00,65.9,52.5,30.13,SSE,148,0.0,5.0,62,0.00,,,0.00,Wunderground v.1.15,2013-05-14 05:30:00,
2013-05-14 00:40:00,65.6,52.2,30.13,SSE,148,0.0,5.0,62,0.00,,,0.00,Wunderground v.1.15,2013-05-14 05:40:00,
2013-05-14 00:50:00,65.1,52.6,30.13,SSE,148,0.0,5.0,64,0.00,,,0.00,Wunderground v.1.15,2013-05-14 05:50:00,
2013-05-14 01:00:00,64.8,52.8,30.12,SSE,148,0.0,5.0,65,0.00,,,0.00,Wunderground v.1.15,2013-05-14 06:00:00,
2013-05-14 01:10:00,64.4,52.4,30.12,SSE,148,0.0,5.0,65,0.00,,,0.00,Wunderground v.1.15,2013-05-14 06:10:00,
2013-05-14 01:20:00,64.3,52.3,30.12,SSE,148,0.0,5.0,65,0.00,,,0.00,Wunderground v.1.15,2013-05-14 06:20:00,
2013-05-14 01:30:00,64.3,52.7,30.11,SSE,148,0.0,5.0,66,0.00,,,0.00,Wunderground v.1.15,2013-05-14 06:30:00,
2013-05-14 01:40:00,64.0,52.8,30.11,SSE,148,0.0,5.0,67,0.00,,,0.00,Wunderground v.1.15,2013-05-14 06:40:00,
2013-05-14 01:50:00,63.5,52.3,30.11,SSE,148,0.0,5.0,67,0.00,,,0.00,Wunderground v.1.15,2013-05-14 06:50:00,
2013-05-14 02:00:00,63.1,52.8,30.11,SSE,148,0.0,5.0,69,0.00,,,0.00,Wunderground v.1.15,2013-05-14 07:00:00,
2013-05-14 02:10:00,62.4,52.9,30.10,SSE,148,0.0,5.0,71,0.00,,,0.00,Wunderground v.1.15,2013-05-14 07:10:00,
2013-05-14 02:20:00,61.9,52.4,30.10,SSE,148,0.0,5.0,71,0.00,,,0.00,Wunderground v.1.15,2013-05-14 07:20:00,
2013-05-14 02:30:00,62.0,52.5,30.10,SSE,148,0.0,5.0,71,0.00,,,0.00,Wunderground v.1.15,2013-05-14 07:30:00,
2013-05-14 02:40:00,62.2,52.3,30.09,SSE,148,0.0,5.0,70,0.00,,,0.00,Wunderground v.1.15,2013-05-14 07:40:00,
2013-05-14 02:50:00,62.0,52.5,30.09,SSE,148,0.0,5.0,71,0.00,,,0.00,Wunderground v.1.15,2013-05-14 07:50:00,
2013-05-14 03:00:00,61.7,52.2,30.09,SSE,148,0.0,5.0,71,0.00,,,0.00,Wunderground v.1.15,2013-05-14 08:00:00,
2013-05-14 03:10:00,61.3,52.6,30.08,SSE,148,0.0,5.0,73,0.00,,,0.00,Wunderground v.1.15,2013-05-14 08:10:00,
2013-05-14 03:20:00,61.0,52.3,30.08,SSE,148,0.0,5.0,73,0.00,,,0.00,Wunderground v.1.15,2013-05-14 08:20:00,
2013-05-14 03:30:00,60.7,52.4,30.08,SSE,148,0.0,5.0,74,0.00,,,0.00,Wunderground v.1.15,2013-05-14 08:30:00,
2013-05-14 03:40:00,60.6,52.3,30.08,SSE,148,0.0,5.0,74,0.00,,,0.00,Wunderground v.1.15,2013-05-14 08:40:00,
2013-05-14 03:50:00,60.3,53.1,30.07,SSE,148,0.0,5.0,77,0.00,,,0.00,Wunderground v.1.15,2013-05-14 08:50:00,
2013-05-14 04:00:00,59.9,53.0,30.08,SSE,148,0.0,5.0,78,0.00,,,0.00,Wunderground v.1.15,2013-05-14 09:00:00,
2013-05-14 04:10:00,59.6,53.1,30.08,SSE,148,0.0,5.0,79,0.00,,,0.00,Wunderground v.1.15,2013-05-14 09:10:00,
2013-05-14 04:20:00,59.3,53.1,30.07,SSE,148,0.0,5.0,80,0.00,,,0.00,Wunderground v.1.15,2013-05-14 09:20:00,
2013-05-14 04:30:00,59.1,52.6,30.07,SSE,148,0.0,5.0,79,0.00,,,0.00,Wunderground v.1.15,2013-05-14 09:30:00,
2013-05-14 04:40:00,59.1,52.6,30.07,SSE,148,0.0,5.0,79,0.00,,,0.00,Wunderground v.1.15,2013-05-14 09:40:00,
2013-05-14 04:50:00,59.1,52.9,30.07,SSE,148,0.0,5.0,80,0.00,,,0.00,Wunderground v.1.15,2013-05-14 09:50:00,
2013-05-14 05:00:00,59.2,53.0,30.07,SSE,148,0.0,5.0,80,0.00,,,0.00,Wunderground v.1.15,2013-05-14 10:00:00,
2013-05-14 05:10:00,59.1,53.3,30.07,SSE,148,0.0,5.0,81,0.00,,,0.00,Wunderground v.1.15,2013-05-14 10:10:00,
2013-05-14 05:20:00,58.9,53.1,30.07,SSE,148,0.0,5.0,81,0.00,,,0.00,Wunderground v.1.15,2013-05-14 10:20:00,
2013-05-14 05:30:00,58.8,53.3,30.07,SSE,148,0.0,5.0,82,0.00,,,0.00,Wunderground v.1.15,2013-05-14 10:30:00,
2013-05-14 05:40:00,58.6,53.1,30.08,SSE,148,0.0,5.0,82,0.00,,,0.00,Wunderground v.1.15,2013-05-14 10:40:00,
2013-05-14 05:50:00,58.3,53.2,30.07,SSE,148,0.0,5.0,83,0.00,,,0.00,Wunderground v.1.15,2013-05-14 10:50:00,
2013-05-14 06:00:00,58.1,53.0,30.08,SSE,148,0.0,5.0,83,0.00,,,0.00,Wunderground v.1.15,2013-05-14 11:00:00,
2013-05-14 06:10:00,58.0,53.2,30.08,SSE,148,0.0,5.0,84,0.00,,,0.00,Wunderground v.1.15,2013-05-14 11:10:00,
2013-05-14 06:20:00,57.7,53.2,30.08,SSE,148,0.0,5.0,85,0.00,,,0.00,Wunderground v.1.15,2013-05-14 11:20:00,
2013-05-14 06:30:00,57.5,53.0,30.08,SSE,148,0.0,5.0,85,0.00,,,0.00,Wunderground v.1.15,2013-05-14 11:30:00,
2013-05-14 06:40:00,57.5,53.3,30.09,SSE,148,0.0,5.0,86,0.00,,,0.00,Wunderground v.1.15,2013-05-14 11:40:00,
2013-05-14 06:50:00,57.6,53.8,30.09,SSE,148,0.0,5.0,87,0.00,,,0.00,Wunderground v.1.15,2013-05-14 11:50:00,
2013-05-14 07:00:00,58.1,54.2,30.09,SSE,148,0.0,5.0,87,0.00,,,0.00,Wunderground v.1.15,2013-05-14 12:00:00,
2013-05-14 07:10:00,58.9,55.0,30.09,SSE,148,0.0,5.0,87,0.00,,,0.00,Wunderground v.1.15,2013-05-14 12:10:00,
2013-05-14 07:20:00,59.8,55.6,30.09,SSE,148,0.0,5.0,86,0.00,,,0.00,Wunderground v.1.15,2013-05-14 12:20:00,
2013-05-14 07:30:00,61.1,56.2,30.09,SSE,148,0.0,5.0,84,0.00,,,0.00,Wunderground v.1.15,2013-05-14 12:30:00,
2013-05-14 07:40:00,62.3,56.7,30.09,SSE,148,0.0,5.0,82,0.00,,,0.00,Wunderground v.1.15,2013-05-14 12:40:00,
2013-05-14 07:50:00,63.4,57.1,30.09,SSE,148,0.0,5.0,80,0.00,,,0.00,Wunderground v.1.15,2013-05-14 12:50:00,
2013-05-14 08:00:00,64.1,57.1,30.09,SSE,148,0.0,5.0,78,0.00,,,0.00,Wunderground v.1.15,2013-05-14 13:00:00,
2013-05-14 08:10:00,64.6,57.9,30.09,SSE,148,0.0,5.0,79,0.00,,,0.00,Wunderground v.1.15,2013-05-14 13:10:00,
2013-05-14 08:20:00,65.1,58.1,30.10,SSE,148,0.0,5.0,78,0.00,,,0.00,Wunderground v.1.15,2013-05-14 13:20:00,
2013-05-14 08:30:00,65.7,58.7,30.10,SSE,148,1.0,6.0,78,0.00,,,0.00,Wunderground v.1.15,2013-05-14 13:30:00,
2013-05-14 08:40:00,66.8,57.5,30.10,South,174,4.0,5.0,72,0.00,,,0.00,Wunderground v.1.15,2013-05-14 13:40:00,
2013-05-14 08:50:00,68.0,57.0,30.10,South,182,3.0,3.0,68,0.00,,,0.00,Wunderground v.1.15,2013-05-14 13:50:00,
2013-05-14 09:00:00,68.9,57.5,30.10,SSW,193,2.0,2.0,67,0.00,,,0.00,Wunderground v.1.15,2013-05-14 14:00:00,
2013-05-14 09:10:00,69.7,57.0,30.11,SSW,200,3.0,5.0,64,0.00,,,0.00,Wunderground v.1.15,2013-05-14 14:10:00,
2013-05-14 09:20:00,70.3,57.5,30.11,South,189,3.0,7.0,64,0.00,,,0.00,Wunderground v.1.15,2013-05-14 14:20:00,
2013-05-14 09:30:00,70.9,56.8,30.10,South,188,3.0,11.0,61,0.00,,,0.00,Wunderground v.1.15,2013-05-14 14:30:00,
2013-05-14 09:40:00,70.8,56.7,30.11,South,188,7.0,9.0,61,0.00,,,0.00,Wunderground v.1.15,2013-05-14 14:40:00,
2013-05-14 09:50:00,71.7,55.7,30.10,SSW,210,6.0,6.0,57,0.00,,,0.00,Wunderground v.1.15,2013-05-14 14:50:00,
2013-05-14 10:00:00,72.2,55.6,30.10,South,191,5.0,6.0,56,0.00,,,0.00,Wunderground v.1.15,2013-05-14 15:00:00,
2013-05-14 10:10:00,72.5,54.4,30.10,SSW,213,6.0,6.0,53,0.00,,,0.00,Wunderground v.1.15,2013-05-14 15:10:00,
2013-05-14 10:20:00,73.4,53.1,30.10,South,186,5.0,6.0,49,0.00,,,0.00,Wunderground v.1.15,2013-05-14 15:20:00,
2013-05-14 10:40:00,74.4,54.0,30.09,South,182,9.0,10.0,49,0.00,,,0.00,Wunderground v.1.15,2013-05-14 15:40:00,
2013-05-14 10:50:00,75.4,54.3,30.09,South,191,9.0,9.0,48,0.00,,,0.00,Wunderground v.1.15,2013-05-14 15:50:00,
2013-05-14 11:00:00,75.3,53.1,30.09,SSW,200,10.0,10.0,46,0.00,,,0.00,Wunderground v.1.15,2013-05-14 16:00:00,
2013-05-14 11:10:00,76.0,56.6,30.09,South,190,7.0,7.0,51,0.00,,,0.00,Wunderground v.1.15,2013-05-14 16:10:00,
2013-05-14 11:20:00,76.8,56.2,30.08,South,172,7.0,10.0,49,0.00,,,0.00,Wunderground v.1.15,2013-05-14 16:20:00,
2013-05-14 11:30:00,77.3,56.1,30.08,SSW,211,10.0,10.0,48,0.00,,,0.00,Wunderground v.1.15,2013-05-14 16:30:00,
2013-05-14 11:40:00,77.0,59.1,30.08,SSE,156,9.0,13.0,54,0.00,,,0.00,Wunderground v.1.15,2013-05-14 16:40:00,
2013-05-14 11:50:00,77.2,57.1,30.08,SSE,152,12.0,12.0,50,0.00,,,0.00,Wunderground v.1.15,2013-05-14 16:50:00,
2013-05-14 12:00:00,77.6,58.6,30.08,South,175,11.0,11.0,52,0.00,,,0.00,Wunderground v.1.15,2013-05-14 17:00:00,
2013-05-14 12:10:00,78.2,57.5,30.07,SSW,205,10.0,10.0,49,0.00,,,0.00,Wunderground v.1.15,2013-05-14 17:10:00,
2013-05-14 12:20:00,78.6,57.8,30.07,South,189,10.0,13.0,49,0.00,,,0.00,Wunderground v.1.15,2013-05-14 17:20:00,
2013-05-14 12:30:00,78.5,58.3,30.07,South,178,12.0,12.0,50,0.00,,,0.00,Wunderground v.1.15,2013-05-14 17:30:00,
2013-05-14 12:40:00,79.1,59.4,30.06,SSE,163,9.0,11.0,51,0.00,,,0.00,Wunderground v.1.15,2013-05-14 17:40:00,
2013-05-14 12:50:00,79.1,58.3,30.06,South,186,11.0,11.0,49,0.00,,,0.00,Wunderground v.1.15,2013-05-14 17:50:00,
2013-05-14 13:00:00,79.3,60.1,30.06,SSE,161,9.0,12.0,52,0.00,,,0.00,Wunderground v.1.15,2013-05-14 18:00:00,
2013-05-14 13:10:00,79.9,59.6,30.05,South,188,8.0,8.0,50,0.00,,,0.00,Wunderground v.1.15,2013-05-14 18:10:00,
2013-05-14 13:20:00,80.1,60.3,30.05,South,182,10.0,10.0,51,0.00,,,0.00,Wunderground v.1.15,2013-05-14 18:20:00,
2013-05-14 13:30:00,80.3,60.0,30.04,South,169,10.0,12.0,50,0.00,,,0.00,Wunderground v.1.15,2013-05-14 18:30:00,
2013-05-14 13:40:00,80.8,61.0,30.04,SSE,162,10.0,10.0,51,0.00,,,0.00,Wunderground v.1.15,2013-05-14 18:40:00,
2013-05-14 13:50:00,81.3,58.5,30.03,South,182,10.0,10.0,46,0.00,,,0.00,Wunderground v.1.15,2013-05-14 18:50:00,
2013-05-14 14:00:00,81.5,57.5,30.02,South,183,11.0,11.0,44,0.00,,,0.00,Wunderground v.1.15,2013-05-14 19:00:00,
2013-05-14 14:10:00,81.9,58.5,30.02,South,170,10.0,12.0,45,0.00,,,0.00,Wunderground v.1.15,2013-05-14 19:10:00,
2013-05-14 14:20:00,82.2,60.0,30.01,SSE,161,11.0,12.0,47,0.00,,,0.00,Wunderground v.1.15,2013-05-14 19:20:00,
2013-05-14 14:30:00,82.6,60.9,30.01,SSE,148,10.0,14.0,48,0.00,,,0.00,Wunderground v.1.15,2013-05-14 19:30:00,
2013-05-14 14:40:00,82.7,59.8,30.01,South,190,10.0,10.0,46,0.00,,,0.00,Wunderground v.1.15,2013-05-14 19:40:00,
2013-05-14 14:50:00,82.8,59.9,30.00,South,170,12.0,17.0,46,0.00,,,0.00,Wunderground v.1.15,2013-05-14 19:50:00,
2013-05-14 15:00:00,83.0,59.5,30.00,South,172,12.0,12.0,45,0.00,,,0.00,Wunderground v.1.15,2013-05-14 20:00:00,
2013-05-14 15:10:00,83.9,59.7,29.99,South,182,9.0,9.0,44,0.00,,,0.00,Wunderground v.1.15,2013-05-14 20:10:00,
2013-05-14 15:20:00,84.0,60.4,29.99,South,188,10.0,10.0,45,0.00,,,0.00,Wunderground v.1.15,2013-05-14 20:20:00,
2013-05-14 15:30:00,84.1,59.2,29.98,South,178,10.0,10.0,43,0.00,,,0.00,Wunderground v.1.15,2013-05-14 20:30:00,
2013-05-14 15:40:00,83.9,60.3,29.98,SSE,162,12.0,12.0,45,0.00,,,0.00,Wunderground v.1.15,2013-05-14 20:40:00,
2013-05-14 15:50:00,84.2,60.6,29.97,SSE,168,13.0,13.0,45,0.00,,,0.00,Wunderground v.1.15,2013-05-14 20:50:00,
2013-05-14 16:00:00,84.2,60.6,29.97,SSW,192,13.0,13.0,45,0.00,,,0.00,Wunderground v.1.15,2013-05-14 21:00:00,
2013-05-14 16:10:00,84.7,58.4,29.96,South,182,10.0,10.0,41,0.00,,,0.00,Wunderground v.1.15,2013-05-14 21:10:00,
2013-05-14 16:20:00,84.7,59.7,29.96,South,173,11.0,11.0,43,0.00,,,0.00,Wunderground v.1.15,2013-05-14 21:20:00,
2013-05-14 16:30:00,84.5,60.2,29.95,South,175,12.0,13.0,44,0.00,,,0.00,Wunderground v.1.15,2013-05-14 21:30:00,
2013-05-14 16:40:00,84.6,60.9,29.95,SSE,164,14.0,16.0,45,0.00,,,0.00,Wunderground v.1.15,2013-05-14 21:40:00,
2013-05-14 16:50:00,84.5,59.5,29.94,South,181,13.0,13.0,43,0.00,,,0.00,Wunderground v.1.15,2013-05-14 21:50:00,
2013-05-14 17:00:00,84.6,60.3,29.94,South,172,12.0,12.0,44,0.00,,,0.00,Wunderground v.1.15,2013-05-14 22:00:00,
2013-05-14 17:10:00,84.4,58.8,29.93,SSE,165,14.0,14.0,42,0.00,,,0.00,Wunderground v.1.15,2013-05-14 22:10:00,
2013-05-14 17:20:00,84.6,59.6,29.93,SSE,157,13.0,16.0,43,0.00,,,0.00,Wunderground v.1.15,2013-05-14 22:20:00,
2013-05-14 17:30:00,84.8,59.2,29.93,South,183,12.0,12.0,42,0.00,,,0.00,Wunderground v.1.15,2013-05-14 22:30:00,
2013-05-14 17:40:00,84.5,56.8,29.92,South,176,15.0,16.0,39,0.00,,,0.00,Wunderground v.1.15,2013-05-14 22:40:00,
2013-05-14 17:50:00,84.4,55.3,29.92,SSE,161,14.0,14.0,37,0.00,,,0.00,Wunderground v.1.15,2013-05-14 22:50:00,
2013-05-14 18:00:00,84.4,56.7,29.91,South,171,13.0,14.0,39,0.00,,,0.00,Wunderground v.1.15,2013-05-14 23:00:00,
2013-05-14 18:10:00,84.2,55.1,29.91,SSE,162,13.0,17.0,37,0.00,,,0.00,Wunderground v.1.15,2013-05-14 23:10:00,
2013-05-14 18:20:00,84.1,55.7,29.91,SSE,163,13.0,14.0,38,0.00,,,0.00,Wunderground v.1.15,2013-05-14 23:20:00,
2013-05-14 18:30:00,83.9,54.1,29.91,South,171,13.0,16.0,36,0.00,,,0.00,Wunderground v.1.15,2013-05-14 23:30:00,
2013-05-14 18:40:00,83.7,53.1,29.90,SSE,152,12.0,14.0,35,0.00,,,0.00,Wunderground v.1.15,2013-05-14 23:40:00,
2013-05-14 18:50:00,83.5,55.9,29.90,SSE,163,11.0,13.0,39,0.00,,,0.00,Wunderground v.1.15,2013-05-14 23:50:00,
2013-05-14 19:00:00,83.3,53.6,29.89,South,173,11.0,16.0,36,0.00,,,0.00,Wunderground v.1.15,2013-05-15 00:00:00,
2013-05-14 19:10:00,83.1,54.9,29.89,SSE,163,10.0,13.0,38,0.00,,,0.00,Wunderground v.1.15,2013-05-15 00:10:00,
2013-05-14 19:20:00,82.7,55.2,29.89,SSE,168,10.0,10.0,39,0.00,,,0.00,Wunderground v.1.15,2013-05-15 00:20:00,
2013-05-14 19:30:00,82.3,56.2,29.89,SSE,155,9.0,10.0,41,0.00,,,0.00,Wunderground v.1.15,2013-05-15 00:30:00,
2013-05-14 19:40:00,81.6,56.9,29.88,SSE,157,9.0,9.0,43,0.00,,,0.00,Wunderground v.1.15,2013-05-15 00:40:00,
2013-05-14 19:50:00,80.8,58.7,29.88,SSE,155,8.0,8.0,47,0.00,,,0.00,Wunderground v.1.15,2013-05-15 00:50:00,
2013-05-14 20:00:00,80.1,59.8,29.88,SE,145,9.0,9.0,50,0.00,,,0.00,Wunderground v.1.15,2013-05-15 01:00:00,
2013-05-14 20:10:00,79.6,59.9,29.89,SSE,149,8.0,8.0,51,0.00,,,0.00,Wunderground v.1.15,2013-05-15 01:10:00,
2013-05-14 20:20:00,78.8,60.2,29.90,SSE,155,6.0,6.0,53,0.00,,,0.00,Wunderground v.1.15,2013-05-15 01:20:00,
2013-05-14 20:30:00,78.2,60.7,29.90,SSE,152,6.0,6.0,55,0.00,,,0.00,Wunderground v.1.15,2013-05-15 01:30:00,
2013-05-14 20:40:00,77.6,60.7,29.90,SSE,165,6.0,10.0,56,0.00,,,0.00,Wunderground v.1.15,2013-05-15 01:40:00,
2013-05-14 20:50:00,77.8,60.8,29.91,SSE,153,8.0,8.0,56,0.00,,,0.00,Wunderground v.1.15,2013-05-15 01:50:00,
2013-05-14 21:00:00,77.6,61.2,29.91,SSE,163,7.0,7.0,57,0.00,,,0.00,Wunderground v.1.15,2013-05-15 02:00:00,
2013-05-14 21:10:00,77.2,61.3,29.91,South,169,7.0,8.0,58,0.00,,,0.00,Wunderground v.1.15,2013-05-15 02:10:00,
2013-05-14 21:20:00,77.0,61.1,29.92,SSE,163,5.0,5.0,58,0.00,,,0.00,Wunderground v.1.15,2013-05-15 02:20:00,
2013-05-14 21:30:00,76.4,61.5,29.93,SSE,163,0.0,5.0,60,0.00,,,0.00,Wunderground v.1.15,2013-05-15 02:30:00,
2013-05-14 21:40:00,75.7,61.8,29.94,SSE,163,4.0,5.0,62,0.00,,,0.00,Wunderground v.1.15,2013-05-15 02:40:00,
2013-05-14 21:50:00,75.6,61.7,29.94,SSE,154,6.0,11.0,62,0.00,,,0.00,Wunderground v.1.15,2013-05-15 02:50:00,
2013-05-14 22:00:00,75.8,62.3,29.94,SSE,159,7.0,7.0,63,0.00,,,0.00,Wunderground v.1.15,2013-05-15 03:00:00,
2013-05-14 22:10:00,75.3,62.3,29.94,SSE,162,6.0,6.0,64,0.00,,,0.00,Wunderground v.1.15,2013-05-15 03:10:00,
2013-05-14 22:20:00,74.9,62.8,29.95,SSE,162,1.0,1.0,66,0.00,,,0.00,Wunderground v.1.15,2013-05-15 03:20:00,
2013-05-14 22:30:00,74.4,62.3,29.95,SSE,162,1.0,1.0,66,0.00,,,0.00,Wunderground v.1.15,2013-05-15 03:30:00,
2013-05-14 22:40:00,74.2,62.5,29.95,SSE,162,2.0,5.0,67,0.00,,,0.00,Wunderground v.1.15,2013-05-15 03:40:00,
2013-05-14 22:50:00,73.9,62.7,29.95,SSE,162,1.0,1.0,68,0.00,,,0.00,Wunderground v.1.15,2013-05-15 03:50:00,
2013-05-14 23:00:00,73.7,62.9,29.96,SSE,162,0.0,5.0,69,0.00,,,0.00,Wunderground v.1.15,2013-05-15 04:00:00,
2013-05-14 23:10:00,73.4,63.0,29.97,SSE,162,0.0,5.0,70,0.00,,,0.00,Wunderground v.1.15,2013-05-15 04:10:00,
2013-05-14 23:20:00,73.5,63.1,29.97,SSE,162,0.0,5.0,70,0.00,,,0.00,Wunderground v.1.15,2013-05-15 04:20:00,
2013-05-14 23:30:00,73.7,63.7,29.97,SSE,162,0.0,5.0,71,0.00,,,0.00,Wunderground v.1.15,2013-05-15 04:30:00,
2013-05-14 23:40:00,73.6,63.6,29.97,SSE,162,0.0,5.0,71,0.00,,,0.00,Wunderground v.1.15,2013-05-15 04:40:00,
2013-05-14 23:50:00,73.6,64.0,29.97,SSE,162,0.0,5.0,72,0.00,,,0.00,Wunderground v.1.15,2013-05-15 04:50:00,